createdAt,value
2023-01-18T00:01:14.549Z,5.07
2023-01-18T00:03:42.211Z,3.83
2023-01-18T00:06:10.552Z,5.53
2023-01-18T00:08:39.866Z,3.40
2023-01-18T00:11:10.966Z,3.03
2023-01-18T00:13:38.758Z,3.45
2023-01-18T00:16:18.483Z,3.13
2023-01-18T00:18:52.563Z,5.10
2023-01-18T00:21:19.579Z,4.15
2023-01-18T00:23:46.457Z,3.08
2023-01-18T00:26:13.866Z,3.67
2023-01-18T00:28:41.698Z,4.07
2023-01-18T00:31:18.776Z,4.00
2023-01-18T00:33:47.833Z,4.55
2023-01-18T00:36:15.686Z,3.65
2023-01-18T00:38:42.949Z,3.58
2023-01-18T00:41:09.757Z,5.22
2023-01-18T00:43:39.830Z,2.92
2023-01-18T00:46:12.120Z,3.28
2023-01-18T00:48:40.995Z,4.43
2023-01-18T00:51:10.866Z,3.08
2023-01-18T00:53:38.190Z,3.92
2023-01-18T00:56:10.580Z,2.83
2023-01-18T00:58:37.988Z,3.15
2023-01-18T01:01:06.515Z,4.18
2023-01-18T01:03:53.840Z,3.28
2023-01-18T01:06:45.663Z,9.13
2023-01-18T01:09:26.872Z,4.03
2023-01-18T01:12:13.139Z,4.30
2023-01-18T01:15:02.891Z,2.95
2023-01-18T01:17:54.555Z,2.55
2023-01-18T01:20:42.335Z,3.97
2023-01-18T01:23:31.203Z,4.25
2023-01-18T01:26:07.790Z,4.00
2023-01-18T01:28:43.021Z,5.18
2023-01-18T01:31:13.743Z,4.40
2023-01-18T01:33:41.212Z,3.13
2023-01-18T01:36:11.177Z,8.57
2023-01-18T01:38:38.776Z,3.28
2023-01-18T01:41:21.299Z,2.88
2023-01-18T01:43:51.505Z,3.90
2023-01-18T01:46:34.394Z,5.47
2023-01-18T01:49:17.578Z,3.83
2023-01-18T01:51:56.635Z,2.50
2023-01-18T01:54:29.042Z,3.42
2023-01-18T01:57:10.941Z,3.55
2023-01-18T01:59:48.721Z,3.90
2023-01-18T02:02:15.763Z,2.72
2023-01-18T02:04:46.382Z,2.85
2023-01-18T02:07:13.365Z,3.40
2023-01-18T02:09:41.224Z,2.85
2023-01-18T02:12:08.178Z,3.80
2023-01-18T02:14:35.825Z,4.05
2023-01-18T02:17:17.457Z,2.05
2023-01-18T02:20:34.254Z,3.58
2023-01-18T02:23:49.176Z,3.25
2023-01-18T02:26:50.935Z,3.40
2023-01-18T02:29:41.323Z,2.40
2023-01-18T02:32:23.939Z,2.28
2023-01-18T02:35:03.058Z,3.25
2023-01-18T02:38:16.921Z,2.75
2023-01-18T02:40:46.536Z,2.25
2023-01-18T02:43:35.688Z,2.40
2023-01-18T02:46:23.638Z,2.30
2023-01-18T02:48:50.964Z,1.88
2023-01-18T02:51:17.818Z,2.20
2023-01-18T02:53:47.328Z,2.80
2023-01-18T02:56:22.223Z,3.08
2023-01-18T02:59:21.355Z,2.38
2023-01-18T03:01:59.785Z,2.30
2023-01-18T03:04:37.972Z,3.85
2023-01-18T03:07:29.807Z,4.18
2023-01-18T03:09:58.772Z,3.65
2023-01-18T03:13:00.737Z,2.75
2023-01-18T03:16:18.312Z,4.30
2023-01-18T03:19:02.951Z,2.35
2023-01-18T03:21:49.015Z,2.42
2023-01-18T03:24:18.659Z,2.53
2023-01-18T03:26:53.189Z,4.75
2023-01-18T03:29:40.426Z,3.13
2023-01-18T03:32:35.672Z,2.10
2023-01-18T03:35:07.690Z,2.70
2023-01-18T03:37:39.670Z,3.28
2023-01-18T03:40:19.773Z,2.90
2023-01-18T03:43:12.157Z,2.53
2023-01-18T03:45:43.799Z,2.70
2023-01-18T03:48:11.821Z,3.38
2023-01-18T03:50:49.146Z,3.47
2023-01-18T03:53:42.518Z,2.58
2023-01-18T03:56:52.793Z,3.80
2023-01-18T03:59:19.613Z,2.33
2023-01-18T04:01:48.180Z,2.88
2023-01-18T04:04:16.155Z,2.35
2023-01-18T04:06:43.047Z,2.92
2023-01-18T04:09:11.899Z,2.65
2023-01-18T04:11:38.698Z,2.00
2023-01-18T04:14:06.158Z,2.45
2023-01-18T04:16:33.127Z,3.35
2023-01-18T04:19:00.097Z,2.40
2023-01-18T04:21:26.860Z,2.70
2023-01-18T04:23:53.691Z,2.75
2023-01-18T04:26:20.531Z,3.70
2023-01-18T04:28:47.360Z,2.15
2023-01-18T04:31:14.357Z,2.25
2023-01-18T04:33:41.224Z,2.60
2023-01-18T04:36:08.825Z,2.50
2023-01-18T04:38:35.708Z,2.60
2023-01-18T04:41:04.513Z,1.60
2023-01-18T04:43:31.821Z,2.47
2023-01-18T04:45:58.677Z,2.00
2023-01-18T04:48:26.212Z,3.13
2023-01-18T04:50:53.193Z,1.35
2023-01-18T04:53:20.322Z,2.67
2023-01-18T04:55:47.633Z,2.58
2023-01-18T04:58:15.168Z,2.00
2023-01-18T05:00:42.089Z,2.80
2023-01-18T05:03:11.672Z,4.45
2023-01-18T05:05:38.981Z,4.68
2023-01-18T05:08:05.820Z,2.22
2023-01-18T05:10:33.622Z,2.58
2023-01-18T05:13:00.934Z,2.25
2023-01-18T05:15:28.038Z,2.25
2023-01-18T05:17:54.815Z,2.08
2023-01-18T05:20:21.643Z,2.17
2023-01-18T05:22:48.438Z,3.47
2023-01-18T05:25:15.253Z,1.92
2023-01-18T05:27:42.079Z,2.15
2023-01-18T05:30:11.068Z,2.10
2023-01-18T05:32:38.120Z,4.15
2023-01-18T05:35:05.969Z,1.98
2023-01-18T05:37:32.922Z,4.47
2023-01-18T05:39:59.950Z,1.45
2023-01-18T05:42:26.821Z,2.63
2023-01-18T05:44:53.803Z,2.63
2023-01-18T05:47:20.691Z,2.03
2023-01-18T05:49:47.553Z,2.40
2023-01-18T05:52:14.369Z,2.08
2023-01-18T05:54:41.612Z,2.30
2023-01-18T05:57:08.652Z,1.70
2023-01-18T05:59:35.518Z,1.98
2023-01-18T06:02:03.878Z,2.05
2023-01-18T06:04:30.834Z,3.88
2023-01-18T06:06:57.948Z,2.33
2023-01-18T06:09:24.774Z,2.38
2023-01-18T06:11:51.564Z,2.58
2023-01-18T06:14:18.388Z,2.28
2023-01-18T06:16:45.294Z,2.80
2023-01-18T06:19:12.454Z,2.10
2023-01-18T06:21:39.480Z,3.00
2023-01-18T06:24:06.680Z,2.35
2023-01-18T06:26:33.525Z,1.92
2023-01-18T06:29:00.461Z,1.70
2023-01-18T06:31:27.280Z,1.90
2023-01-18T06:33:54.137Z,1.65
2023-01-18T06:36:20.985Z,1.95
2023-01-18T06:38:47.810Z,1.67
2023-01-18T06:41:15.884Z,2.08
2023-01-18T06:43:42.767Z,2.40
2023-01-18T06:46:11.560Z,4.35
2023-01-18T06:48:38.605Z,1.92
2023-01-18T06:51:05.633Z,2.45
2023-01-18T06:53:32.739Z,2.05
2023-01-18T06:56:01.786Z,3.65
2023-01-18T06:58:31.025Z,3.40
2023-01-18T07:01:00.398Z,5.30
2023-01-18T07:03:30.972Z,1.10
2023-01-18T07:06:00.446Z,1.42
2023-01-18T07:08:30.792Z,2.17
2023-01-18T07:10:59.382Z,0.47
2023-01-18T07:13:26.942Z,1.00
2023-01-18T07:15:57.994Z,0.50
2023-01-18T07:18:26.459Z,0.93
2023-01-18T07:21:02.000Z,1.15
2023-01-18T07:23:30.088Z,1.30
2023-01-18T07:26:04.715Z,1.15
2023-01-18T07:28:32.613Z,1.58
2023-01-18T07:31:00.317Z,1.80
2023-01-18T07:33:28.389Z,2.28
2023-01-18T07:35:57.506Z,2.20
2023-01-18T07:38:25.365Z,1.20
2023-01-18T07:41:09.336Z,2.17
2023-01-18T07:43:37.628Z,1.40
2023-01-18T07:46:06.765Z,0.80
2023-01-18T07:48:34.205Z,1.17
2023-01-18T07:51:07.152Z,1.30
2023-01-18T07:53:35.865Z,1.20
2023-01-18T07:56:06.731Z,2.08
2023-01-18T07:58:35.770Z,1.63
2023-01-18T08:01:09.815Z,1.00
2023-01-18T08:03:37.596Z,6.30
2023-01-18T08:06:08.642Z,2.92
2023-01-18T08:08:36.912Z,1.35
2023-01-18T08:11:06.200Z,1.58
2023-01-18T08:13:33.072Z,1.65
2023-01-18T08:16:02.966Z,1.52
2023-01-18T08:18:30.126Z,1.58
2023-01-18T08:20:57.286Z,3.50
2023-01-18T08:23:24.314Z,1.77
2023-01-18T08:25:51.887Z,1.77
2023-01-18T08:28:19.447Z,1.70
2023-01-18T08:30:48.871Z,2.92
2023-01-18T08:33:15.781Z,1.60
2023-01-18T08:35:47.853Z,1.60
2023-01-18T08:38:16.342Z,1.70
2023-01-18T08:40:43.525Z,1.88
2023-01-18T08:43:11.768Z,1.00
2023-01-18T08:45:38.876Z,1.60
2023-01-18T08:48:09.639Z,1.80
2023-01-18T08:50:39.268Z,1.08
2023-01-18T08:53:06.875Z,1.67
2023-01-18T08:55:36.462Z,1.92
2023-01-18T08:58:03.742Z,2.10
2023-01-18T09:00:30.615Z,5.32
2023-01-18T09:02:58.619Z,0.95
2023-01-18T09:05:27.107Z,1.38
2023-01-18T09:07:55.745Z,2.30
2023-01-18T09:10:23.200Z,2.58
2023-01-18T09:12:52.771Z,2.50
2023-01-18T09:15:20.427Z,2.72
2023-01-18T09:17:47.286Z,1.70
2023-01-18T09:20:18.571Z,2.42
2023-01-18T09:22:47.722Z,1.92
2023-01-18T09:25:15.119Z,2.13
2023-01-18T09:27:42.492Z,1.67
2023-01-18T09:30:10.295Z,3.17
2023-01-18T09:32:37.169Z,2.72
2023-01-18T09:35:04.484Z,1.23
2023-01-18T09:37:32.574Z,2.70
2023-01-18T09:40:00.307Z,1.50
2023-01-18T09:42:37.979Z,2.15
2023-01-18T09:45:05.932Z,2.20
2023-01-18T09:47:43.679Z,2.10
2023-01-18T09:50:16.228Z,1.10
2023-01-18T09:53:35.458Z,5.75
2023-01-18T09:56:27.913Z,2.10
2023-01-18T09:59:27.559Z,2.72
2023-01-18T10:01:56.227Z,4.30
2023-01-18T10:04:36.189Z,2.70
2023-01-18T10:07:07.928Z,1.90
2023-01-18T10:09:43.215Z,2.20
2023-01-18T10:12:38.996Z,2.40
2023-01-18T10:15:22.096Z,4.65
2023-01-18T10:17:53.608Z,2.45
2023-01-18T10:20:44.493Z,1.65
2023-01-18T10:23:35.796Z,2.50
2023-01-18T10:26:09.352Z,1.95
2023-01-18T10:29:00.768Z,2.00
2023-01-18T10:31:57.285Z,1.95
2023-01-18T10:34:34.447Z,3.38
2023-01-18T10:37:21.307Z,2.45
2023-01-18T10:40:12.497Z,2.95
2023-01-18T10:42:52.489Z,2.28
2023-01-18T10:45:24.200Z,2.70
2023-01-18T10:47:53.612Z,1.67
2023-01-18T10:50:39.976Z,3.08
2023-01-18T10:53:34.288Z,1.65
2023-01-18T10:56:16.413Z,1.33
2023-01-18T10:58:57.985Z,1.45
2023-01-18T11:01:36.768Z,1.67
2023-01-18T11:04:07.375Z,5.80
2023-01-18T11:06:51.061Z,1.55
2023-01-18T11:09:41.642Z,2.50
2023-01-18T11:12:38.448Z,3.45
2023-01-18T11:15:15.029Z,1.92
2023-01-18T11:18:00.384Z,1.95
2023-01-18T11:20:49.869Z,2.10
2023-01-18T11:23:37.433Z,1.92
2023-01-18T11:26:16.045Z,2.08
2023-01-18T11:29:02.291Z,1.90
2023-01-18T11:31:50.349Z,2.92
2023-01-18T11:34:25.393Z,1.40
2023-01-18T11:36:52.359Z,3.55
2023-01-18T11:39:27.304Z,3.55
2023-01-18T11:42:34.666Z,2.20
2023-01-18T11:45:24.866Z,3.67
2023-01-18T11:48:28.547Z,2.45
2023-01-18T11:51:22.548Z,4.10
2023-01-18T11:54:05.712Z,3.10
2023-01-18T11:56:52.048Z,1.90
2023-01-18T11:59:36.435Z,2.92
2023-01-18T12:02:12.386Z,4.25
2023-01-18T12:04:47.891Z,3.05
2023-01-18T12:07:18.879Z,2.45
2023-01-18T12:09:57.802Z,4.38
2023-01-18T12:12:52.720Z,5.85
2023-01-18T12:16:00.924Z,3.00
2023-01-18T12:19:02.689Z,4.10
2023-01-18T12:22:16.528Z,4.57
2023-01-18T12:25:01.885Z,3.15
2023-01-18T12:27:50.437Z,3.47
2023-01-18T12:31:21.337Z,2.33
2023-01-18T12:34:08.065Z,5.75
2023-01-18T12:36:51.728Z,0.93
2023-01-18T12:39:51.348Z,3.22
2023-01-18T12:42:46.624Z,4.38
2023-01-18T12:45:29.000Z,4.43
2023-01-18T12:48:54.930Z,2.63
2023-01-18T12:51:25.960Z,4.43
2023-01-18T12:54:08.957Z,4.10
2023-01-18T12:56:40.511Z,1.52
2023-01-18T12:59:25.305Z,2.97
2023-01-18T13:02:00.438Z,1.33
2023-01-18T13:04:36.622Z,1.73
2023-01-18T13:07:13.133Z,0.40
2023-01-18T13:09:46.280Z,1.92
2023-01-18T13:12:14.741Z,1.40
2023-01-18T13:15:04.900Z,1.75
2023-01-18T13:17:39.132Z,1.88
2023-01-18T13:20:10.731Z,2.30
2023-01-18T13:23:16.039Z,4.03
2023-01-18T13:26:21.441Z,2.08
2023-01-18T13:28:48.406Z,3.38
2023-01-18T13:31:15.383Z,4.70
2023-01-18T13:33:47.306Z,4.70
2023-01-18T13:36:17.386Z,2.40
2023-01-18T13:38:58.041Z,1.77
2023-01-18T13:41:29.212Z,6.30
2023-01-18T13:44:06.511Z,3.28
2023-01-18T13:46:36.505Z,3.53
2023-01-18T13:49:37.396Z,1.42
2023-01-18T13:52:35.522Z,4.28
2023-01-18T13:55:23.915Z,2.60
2023-01-18T13:57:55.583Z,2.33
2023-01-18T14:00:26.754Z,2.55
2023-01-18T14:03:07.793Z,1.45
2023-01-18T14:05:43.183Z,2.90
2023-01-18T14:08:31.337Z,1.85
2023-01-18T14:11:28.226Z,2.45
2023-01-18T14:13:54.939Z,3.58
2023-01-18T14:16:26.406Z,3.70
2023-01-18T14:19:00.875Z,3.13
2023-01-18T14:22:17.451Z,2.47
2023-01-18T14:25:17.945Z,3.20
2023-01-18T14:27:51.054Z,0.73
2023-01-18T14:30:27.967Z,1.48
2023-01-18T14:33:04.964Z,3.13
2023-01-18T14:35:31.962Z,4.03
2023-01-18T14:38:18.845Z,4.28
2023-01-18T14:40:57.268Z,5.25
2023-01-18T14:43:37.186Z,4.35
2023-01-18T14:46:21.088Z,4.57
2023-01-18T14:49:01.625Z,4.85
2023-01-18T14:51:29.890Z,3.53
2023-01-18T14:54:02.840Z,4.60
2023-01-18T14:56:34.786Z,5.93
2023-01-18T14:59:19.184Z,2.10
2023-01-18T15:02:14.533Z,0.75
2023-01-18T15:04:45.492Z,1.67
2023-01-18T15:07:24.896Z,2.22
2023-01-18T15:09:52.039Z,1.52
2023-01-18T15:12:24.272Z,2.83
2023-01-18T15:14:51.343Z,3.95
2023-01-18T15:17:24.833Z,0.55
2023-01-18T15:20:07.297Z,1.40
2023-01-18T15:22:38.281Z,2.72
2023-01-18T15:25:18.449Z,1.65
2023-01-18T15:27:51.827Z,2.00
2023-01-18T15:30:22.993Z,1.73
2023-01-18T15:32:58.083Z,2.38
2023-01-18T15:35:25.946Z,3.53
2023-01-18T15:37:53.198Z,1.92
2023-01-18T15:40:19.997Z,2.20
2023-01-18T15:43:07.582Z,1.92
2023-01-18T15:45:40.719Z,2.90
2023-01-18T15:48:18.628Z,4.22
2023-01-18T15:50:56.767Z,2.65
2023-01-18T15:53:56.173Z,2.85
2023-01-18T15:56:29.710Z,3.00
2023-01-18T15:59:00.567Z,4.55
2023-01-18T16:01:33.892Z,3.65
2023-01-18T16:04:11.749Z,2.83
2023-01-18T16:06:40.238Z,5.05
2023-01-18T16:09:20.667Z,2.78
2023-01-18T16:11:54.389Z,4.10
2023-01-18T16:14:33.599Z,3.60
2023-01-18T16:17:27.584Z,3.85
2023-01-18T16:19:57.695Z,4.95
2023-01-18T16:22:31.926Z,5.88
2023-01-18T16:25:02.587Z,5.80
2023-01-18T16:27:31.842Z,4.35
2023-01-18T16:30:14.634Z,4.47
2023-01-18T16:32:41.432Z,5.45
2023-01-18T16:35:10.842Z,4.43
2023-01-18T16:37:38.581Z,4.00
2023-01-18T16:40:08.758Z,3.17
2023-01-18T16:43:02.976Z,3.75
2023-01-18T16:45:35.440Z,3.90
2023-01-18T16:48:03.804Z,4.32
2023-01-18T16:50:31.234Z,3.28
2023-01-18T16:52:58.073Z,3.45
2023-01-18T16:55:24.936Z,2.60
2023-01-18T16:57:51.982Z,3.97
2023-01-18T17:00:26.362Z,3.67
2023-01-18T17:02:53.561Z,7.38
2023-01-18T17:05:20.739Z,7.25
2023-01-18T17:07:47.904Z,4.50
2023-01-18T17:10:29.193Z,5.85
2023-01-18T17:12:56.034Z,7.43
2023-01-18T17:15:22.902Z,10.75
2023-01-18T17:17:50.295Z,9.05
2023-01-18T17:20:23.612Z,5.80
2023-01-18T17:22:51.986Z,6.75
2023-01-18T17:25:20.464Z,6.32
2023-01-18T17:27:47.422Z,3.90
2023-01-18T17:30:20.259Z,5.93
2023-01-18T17:32:47.904Z,5.57
2023-01-18T17:35:17.737Z,3.92
2023-01-18T17:37:45.461Z,6.00
2023-01-18T17:40:20.352Z,5.70
2023-01-18T17:42:51.700Z,5.75
2023-01-18T17:45:18.629Z,6.22
2023-01-18T17:47:45.471Z,5.40
2023-01-18T17:50:17.421Z,12.20
2023-01-18T17:52:44.447Z,6.60
2023-01-18T17:55:13.669Z,5.28
2023-01-18T17:57:41.503Z,7.78
2023-01-18T18:00:13.442Z,4.25
2023-01-18T18:02:41.287Z,4.43
2023-01-18T18:05:09.117Z,7.00
2023-01-18T18:07:36.258Z,4.43
2023-01-18T18:10:05.363Z,5.30
2023-01-18T18:12:34.042Z,6.95
2023-01-18T18:15:01.520Z,8.75
2023-01-18T18:17:30.772Z,11.25
2023-01-18T18:19:58.181Z,3.53
2023-01-18T18:22:25.566Z,5.07
2023-01-18T18:24:52.687Z,7.32
2023-01-18T18:27:20.377Z,5.97
2023-01-18T18:29:47.867Z,6.65
2023-01-18T18:32:15.128Z,6.40
2023-01-18T18:34:42.017Z,7.88
2023-01-18T18:37:09.004Z,11.00
2023-01-18T18:39:35.862Z,9.10
2023-01-18T18:42:02.735Z,14.75
2023-01-18T18:44:29.601Z,10.85
2023-01-18T18:46:56.422Z,11.65
2023-01-18T18:49:23.230Z,13.18
2023-01-18T18:51:50.090Z,16.15
2023-01-18T18:54:17.004Z,11.30
2023-01-18T18:56:43.929Z,11.52
2023-01-18T18:59:10.898Z,12.40
2023-01-18T19:01:37.886Z,8.45
2023-01-18T19:04:05.419Z,11.57
2023-01-18T19:06:32.686Z,6.78
2023-01-18T19:08:59.627Z,5.47
2023-01-18T19:11:26.520Z,14.18
2023-01-18T19:13:55.947Z,15.60
2023-01-18T19:16:23.051Z,11.70
2023-01-18T19:18:49.972Z,10.77
2023-01-18T19:21:16.784Z,6.53
2023-01-18T19:23:43.701Z,8.65
2023-01-18T19:26:10.704Z,7.72
2023-01-18T19:28:37.756Z,7.60
2023-01-18T19:31:06.680Z,3.42
2023-01-18T19:33:33.746Z,2.67
2023-01-18T19:36:11.856Z,8.32
2023-01-18T19:38:46.440Z,3.10
2023-01-18T19:41:14.898Z,5.18
2023-01-18T19:43:42.750Z,8.52
2023-01-18T19:46:12.610Z,6.32
2023-01-18T19:48:40.194Z,6.72
2023-01-18T19:51:21.186Z,5.22
2023-01-18T19:53:49.295Z,10.35
2023-01-18T19:56:16.143Z,6.85
2023-01-18T19:58:43.233Z,7.90
2023-01-18T20:01:26.707Z,8.30
2023-01-18T20:04:01.241Z,8.95
2023-01-18T20:06:28.134Z,10.07
2023-01-18T20:08:54.987Z,6.07
2023-01-18T20:11:21.809Z,5.30
2023-01-18T20:13:50.315Z,3.95
2023-01-18T20:16:20.316Z,3.50
2023-01-18T20:18:48.671Z,6.53
2023-01-18T20:21:18.393Z,8.27
2023-01-18T20:23:45.978Z,9.85
2023-01-18T20:26:24.566Z,7.80
2023-01-18T20:28:55.831Z,5.13
2023-01-18T20:31:23.345Z,9.20
2023-01-18T20:33:50.424Z,6.45
2023-01-18T20:36:17.323Z,2.40
2023-01-18T20:38:44.175Z,4.00
2023-01-18T20:41:11.224Z,2.05
2023-01-18T20:43:38.136Z,6.20
2023-01-18T20:46:10.272Z,2.55
2023-01-18T20:48:38.606Z,1.10
2023-01-18T20:51:07.421Z,0.88
2023-01-18T20:53:34.754Z,0.65
2023-01-18T20:56:04.812Z,2.78
2023-01-18T20:58:32.018Z,2.40
2023-01-18T21:01:06.075Z,2.63
2023-01-18T21:03:33.024Z,3.35
2023-01-18T21:05:59.919Z,2.35
2023-01-18T21:08:26.727Z,3.75
2023-01-18T21:10:53.610Z,6.00
2023-01-18T21:13:20.572Z,2.20
2023-01-18T21:15:58.309Z,3.03
2023-01-18T21:18:28.823Z,2.28
